sensor_id;sensor_type;location;lat;lon;timestamp;P1;durP1;ratioP1;P2;durP2;ratioP2
62584;SDS011;48643;51.670;5.808;2022-11-20T00:01:14;7.68;;;4.20;;
62584;SDS011;48643;51.670;5.808;2022-11-20T00:03:44;6.78;;;4.10;;
62584;SDS011;48643;51.670;5.808;2022-11-20T00:06:13;7.18;;;4.40;;
62584;SDS011;48643;51.670;5.808;2022-11-20T00:08:41;5.88;;;4.25;;
62584;SDS011;48643;51.670;5.808;2022-11-20T00:11:09;6.03;;;4.00;;
62584;SDS011;48643;51.670;5.808;2022-11-20T00:13:41;5.75;;;4.10;;
62584;SDS011;48643;51.670;5.808;2022-11-20T00:16:10;5.93;;;4.30;;
62584;SDS011;48643;51.670;5.808;2022-11-20T00:18:38;7.63;;;4.40;;
62584;SDS011;48643;51.670;5.808;2022-11-20T00:21:12;5.85;;;4.28;;
62584;SDS011;48643;51.670;5.808;2022-11-20T00:23:40;6.03;;;4.25;;
62584;SDS011;48643;51.670;5.808;2022-11-20T00:26:09;6.93;;;4.15;;
62584;SDS011;48643;51.670;5.808;2022-11-20T00:28:38;6.50;;;4.50;;
62584;SDS011;48643;51.670;5.808;2022-11-20T00:31:07;5.40;;;4.18;;
62584;SDS011;48643;51.670;5.808;2022-11-20T00:33:35;5.35;;;3.85;;
62584;SDS011;48643;51.670;5.808;2022-11-20T00:36:05;5.75;;;4.28;;
62584;SDS011;48643;51.670;5.808;2022-11-20T00:38:33;6.40;;;4.30;;
62584;SDS011;48643;51.670;5.808;2022-11-20T00:41:01;6.22;;;3.88;;
62584;SDS011;48643;51.670;5.808;2022-11-20T00:43:29;5.78;;;4.38;;
62584;SDS011;48643;51.670;5.808;2022-11-20T00:46:00;6.50;;;4.60;;
62584;SDS011;48643;51.670;5.808;2022-11-20T00:48:31;7.78;;;4.43;;
62584;SDS011;48643;51.670;5.808;2022-11-20T00:50:58;6.15;;;4.38;;
62584;SDS011;48643;51.670;5.808;2022-11-20T00:53:25;6.35;;;4.32;;
62584;SDS011;48643;51.670;5.808;2022-11-20T00:56:03;6.63;;;4.38;;
62584;SDS011;48643;51.670;5.808;2022-11-20T00:58:32;11.00;;;4.50;;
62584;SDS011;48643;51.670;5.808;2022-11-20T01:01:02;5.72;;;4.15;;
62584;SDS011;48643;51.670;5.808;2022-11-20T01:03:34;6.32;;;4.40;;
62584;SDS011;48643;51.670;5.808;2022-11-20T01:06:06;6.50;;;4.72;;
62584;SDS011;48643;51.670;5.808;2022-11-20T01:08:35;5.38;;;4.07;;
62584;SDS011;48643;51.670;5.808;2022-11-20T01:11:03;7.28;;;4.40;;
62584;SDS011;48643;51.670;5.808;2022-11-20T01:13:32;6.53;;;4.40;;
62584;SDS011;48643;51.670;5.808;2022-11-20T01:16:15;8.18;;;4.35;;
62584;SDS011;48643;51.670;5.808;2022-11-20T01:18:45;20.85;;;4.40;;
62584;SDS011;48643;51.670;5.808;2022-11-20T01:21:14;6.57;;;4.68;;
62584;SDS011;48643;51.670;5.808;2022-11-20T01:23:46;5.80;;;4.07;;
62584;SDS011;48643;51.670;5.808;2022-11-20T01:26:32;5.75;;;4.13;;
62584;SDS011;48643;51.670;5.808;2022-11-20T01:29:01;6.60;;;4.30;;
62584;SDS011;48643;51.670;5.808;2022-11-20T01:31:29;5.57;;;4.28;;
62584;SDS011;48643;51.670;5.808;2022-11-20T01:33:59;9.52;;;4.50;;
62584;SDS011;48643;51.670;5.808;2022-11-20T01:36:28;6.60;;;4.45;;
62584;SDS011;48643;51.670;5.808;2022-11-20T01:39:00;5.40;;;4.27;;
62584;SDS011;48643;51.670;5.808;2022-11-20T01:41:30;6.00;;;4.10;;
62584;SDS011;48643;51.670;5.808;2022-11-20T01:44:16;6.07;;;4.28;;
62584;SDS011;48643;51.670;5.808;2022-11-20T01:46:58;6.93;;;4.25;;
62584;SDS011;48643;51.670;5.808;2022-11-20T01:49:37;8.23;;;4.18;;
62584;SDS011;48643;51.670;5.808;2022-11-20T01:52:08;6.78;;;4.40;;
62584;SDS011;48643;51.670;5.808;2022-11-20T01:54:41;6.57;;;4.68;;
62584;SDS011;48643;51.670;5.808;2022-11-20T01:57:22;6.53;;;4.03;;
62584;SDS011;48643;51.670;5.808;2022-11-20T01:59:53;5.97;;;4.40;;
62584;SDS011;48643;51.670;5.808;2022-11-20T02:02:25;6.43;;;4.40;;
62584;SDS011;48643;51.670;5.808;2022-11-20T02:04:52;6.72;;;4.20;;
62584;SDS011;48643;51.670;5.808;2022-11-20T02:07:20;6.80;;;4.40;;
62584;SDS011;48643;51.670;5.808;2022-11-20T02:09:49;5.63;;;3.90;;
62584;SDS011;48643;51.670;5.808;2022-11-20T02:12:23;7.45;;;4.70;;
62584;SDS011;48643;51.670;5.808;2022-11-20T02:15:09;6.85;;;4.13;;
62584;SDS011;48643;51.670;5.808;2022-11-20T02:17:36;7.60;;;4.57;;
62584;SDS011;48643;51.670;5.808;2022-11-20T02:20:03;6.18;;;4.22;;
62584;SDS011;48643;51.670;5.808;2022-11-20T02:22:31;5.43;;;4.03;;
62584;SDS011;48643;51.670;5.808;2022-11-20T02:25:02;6.35;;;4.22;;
62584;SDS011;48643;51.670;5.808;2022-11-20T02:27:30;7.85;;;4.40;;
62584;SDS011;48643;51.670;5.808;2022-11-20T02:29:58;5.80;;;4.30;;
62584;SDS011;48643;51.670;5.808;2022-11-20T02:32:28;8.10;;;4.22;;
62584;SDS011;48643;51.670;5.808;2022-11-20T02:37:44;5.93;;;3.88;;
62584;SDS011;48643;51.670;5.808;2022-11-20T02:40:13;5.45;;;3.78;;
62584;SDS011;48643;51.670;5.808;2022-11-20T02:42:40;5.97;;;4.28;;
62584;SDS011;48643;51.670;5.808;2022-11-20T02:45:07;7.63;;;4.30;;
62584;SDS011;48643;51.670;5.808;2022-11-20T02:47:34;5.80;;;4.30;;
62584;SDS011;48643;51.670;5.808;2022-11-20T02:50:01;6.30;;;4.32;;
62584;SDS011;48643;51.670;5.808;2022-11-20T02:52:28;6.50;;;4.38;;
62584;SDS011;48643;51.670;5.808;2022-11-20T02:54:55;5.88;;;4.20;;
62584;SDS011;48643;51.670;5.808;2022-11-20T02:57:22;6.47;;;4.30;;
62584;SDS011;48643;51.670;5.808;2022-11-20T02:59:48;5.57;;;4.07;;
62584;SDS011;48643;51.670;5.808;2022-11-20T03:02:15;6.30;;;4.15;;
62584;SDS011;48643;51.670;5.808;2022-11-20T03:04:42;5.88;;;4.25;;
62584;SDS011;48643;51.670;5.808;2022-11-20T03:07:09;5.95;;;4.43;;
62584;SDS011;48643;51.670;5.808;2022-11-20T03:09:36;7.70;;;4.30;;
62584;SDS011;48643;51.670;5.808;2022-11-20T03:12:03;8.38;;;4.45;;
62584;SDS011;48643;51.670;5.808;2022-11-20T03:14:30;6.18;;;4.50;;
62584;SDS011;48643;51.670;5.808;2022-11-20T03:16:57;5.90;;;4.20;;
62584;SDS011;48643;51.670;5.808;2022-11-20T03:19:24;6.53;;;4.40;;
62584;SDS011;48643;51.670;5.808;2022-11-20T03:21:51;6.53;;;4.50;;
62584;SDS011;48643;51.670;5.808;2022-11-20T03:24:18;5.13;;;4.18;;
62584;SDS011;48643;51.670;5.808;2022-11-20T03:26:45;5.72;;;4.05;;
62584;SDS011;48643;51.670;5.808;2022-11-20T03:29:12;6.20;;;4.35;;
62584;SDS011;48643;51.670;5.808;2022-11-20T03:31:39;5.85;;;4.10;;
62584;SDS011;48643;51.670;5.808;2022-11-20T03:34:07;6.22;;;4.10;;
62584;SDS011;48643;51.670;5.808;2022-11-20T03:36:37;5.72;;;4.03;;
62584;SDS011;48643;51.670;5.808;2022-11-20T03:39:05;6.53;;;4.35;;
62584;SDS011;48643;51.670;5.808;2022-11-20T03:41:35;6.80;;;4.13;;
62584;SDS011;48643;51.670;5.808;2022-11-20T03:44:04;7.47;;;4.30;;
62584;SDS011;48643;51.670;5.808;2022-11-20T03:46:32;6.32;;;4.22;;
62584;SDS011;48643;51.670;5.808;2022-11-20T03:48:59;7.28;;;4.68;;
62584;SDS011;48643;51.670;5.808;2022-11-20T03:51:27;7.18;;;4.43;;
62584;SDS011;48643;51.670;5.808;2022-11-20T03:53:56;5.45;;;4.00;;
62584;SDS011;48643;51.670;5.808;2022-11-20T03:56:25;5.57;;;4.07;;
62584;SDS011;48643;51.670;5.808;2022-11-20T03:58:53;5.13;;;4.28;;
62584;SDS011;48643;51.670;5.808;2022-11-20T04:01:21;5.88;;;4.20;;
62584;SDS011;48643;51.670;5.808;2022-11-20T04:03:51;6.05;;;4.10;;
62584;SDS011;48643;51.670;5.808;2022-11-20T04:08:46;4.80;;;3.80;;
62584;SDS011;48643;51.670;5.808;2022-11-20T04:11:20;7.53;;;4.20;;
62584;SDS011;48643;51.670;5.808;2022-11-20T04:13:50;5.32;;;4.03;;
62584;SDS011;48643;51.670;5.808;2022-11-20T04:16:18;5.30;;;4.03;;
62584;SDS011;48643;51.670;5.808;2022-11-20T04:18:46;5.68;;;4.10;;
62584;SDS011;48643;51.670;5.808;2022-11-20T04:21:13;5.55;;;4.28;;
62584;SDS011;48643;51.670;5.808;2022-11-20T04:23:39;6.18;;;4.25;;
62584;SDS011;48643;51.670;5.808;2022-11-20T04:26:07;5.25;;;4.15;;
62584;SDS011;48643;51.670;5.808;2022-11-20T04:28:35;5.80;;;4.00;;
62584;SDS011;48643;51.670;5.808;2022-11-20T04:31:03;5.95;;;4.40;;
62584;SDS011;48643;51.670;5.808;2022-11-20T04:33:32;5.90;;;4.10;;
62584;SDS011;48643;51.670;5.808;2022-11-20T04:36:21;5.30;;;4.03;;
62584;SDS011;48643;51.670;5.808;2022-11-20T04:39:06;5.65;;;3.97;;
62584;SDS011;48643;51.670;5.808;2022-11-20T04:41:33;5.38;;;4.00;;
62584;SDS011;48643;51.670;5.808;2022-11-20T04:44:02;6.78;;;4.07;;
62584;SDS011;48643;51.670;5.808;2022-11-20T04:46:34;5.57;;;3.90;;
62584;SDS011;48643;51.670;5.808;2022-11-20T04:49:06;5.10;;;3.95;;
62584;SDS011;48643;51.670;5.808;2022-11-20T04:51:33;6.60;;;4.18;;
62584;SDS011;48643;51.670;5.808;2022-11-20T04:54:00;5.53;;;3.75;;
62584;SDS011;48643;51.670;5.808;2022-11-20T04:56:27;7.75;;;4.20;;
62584;SDS011;48643;51.670;5.808;2022-11-20T04:58:54;5.65;;;4.10;;
62584;SDS011;48643;51.670;5.808;2022-11-20T05:01:22;5.90;;;4.10;;
62584;SDS011;48643;51.670;5.808;2022-11-20T05:03:50;5.38;;;3.83;;
62584;SDS011;48643;51.670;5.808;2022-11-20T05:06:18;7.93;;;4.30;;
62584;SDS011;48643;51.670;5.808;2022-11-20T05:08:48;6.07;;;4.57;;
62584;SDS011;48643;51.670;5.808;2022-11-20T05:11:16;5.50;;;3.88;;
62584;SDS011;48643;51.670;5.808;2022-11-20T05:13:45;5.47;;;4.20;;
62584;SDS011;48643;51.670;5.808;2022-11-20T05:16:13;5.72;;;3.92;;
62584;SDS011;48643;51.670;5.808;2022-11-20T05:18:49;6.80;;;4.30;;
62584;SDS011;48643;51.670;5.808;2022-11-20T05:21:17;6.03;;;4.15;;
62584;SDS011;48643;51.670;5.808;2022-11-20T05:23:44;5.53;;;4.10;;
62584;SDS011;48643;51.670;5.808;2022-11-20T05:26:21;5.45;;;3.90;;
62584;SDS011;48643;51.670;5.808;2022-11-20T05:28:49;4.95;;;3.78;;
62584;SDS011;48643;51.670;5.808;2022-11-20T05:31:22;6.45;;;4.03;;
62584;SDS011;48643;51.670;5.808;2022-11-20T05:33:54;4.50;;;3.60;;
62584;SDS011;48643;51.670;5.808;2022-11-20T05:36:22;5.37;;;4.30;;
62584;SDS011;48643;51.670;5.808;2022-11-20T05:38:49;5.88;;;4.20;;
62584;SDS011;48643;51.670;5.808;2022-11-20T05:41:18;5.57;;;3.97;;
62584;SDS011;48643;51.670;5.808;2022-11-20T05:43:47;5.53;;;4.03;;
62584;SDS011;48643;51.670;5.808;2022-11-20T05:46:15;6.20;;;4.05;;
62584;SDS011;48643;51.670;5.808;2022-11-20T05:48:43;5.00;;;4.10;;
62584;SDS011;48643;51.670;5.808;2022-11-20T05:51:12;5.88;;;4.30;;
62584;SDS011;48643;51.670;5.808;2022-11-20T05:53:41;5.22;;;3.97;;
62584;SDS011;48643;51.670;5.808;2022-11-20T05:56:16;4.97;;;4.00;;
62584;SDS011;48643;51.670;5.808;2022-11-20T05:58:44;5.68;;;4.15;;
62584;SDS011;48643;51.670;5.808;2022-11-20T06:01:13;6.07;;;4.18;;
62584;SDS011;48643;51.670;5.808;2022-11-20T06:03:41;6.05;;;4.00;;
62584;SDS011;48643;51.670;5.808;2022-11-20T06:06:09;5.85;;;4.10;;
62584;SDS011;48643;51.670;5.808;2022-11-20T06:08:36;5.30;;;4.30;;
62584;SDS011;48643;51.670;5.808;2022-11-20T06:11:04;5.28;;;4.00;;
62584;SDS011;48643;51.670;5.808;2022-11-20T06:13:32;5.57;;;4.15;;
62584;SDS011;48643;51.670;5.808;2022-11-20T06:16:06;5.40;;;3.97;;
62584;SDS011;48643;51.670;5.808;2022-11-20T06:18:33;5.03;;;4.10;;
62584;SDS011;48643;51.670;5.808;2022-11-20T06:21:01;6.22;;;4.20;;
62584;SDS011;48643;51.670;5.808;2022-11-20T06:23:32;5.43;;;4.10;;
62584;SDS011;48643;51.670;5.808;2022-11-20T06:26:07;5.95;;;4.25;;
62584;SDS011;48643;51.670;5.808;2022-11-20T06:28:35;6.20;;;4.25;;
62584;SDS011;48643;51.670;5.808;2022-11-20T06:31:02;5.57;;;4.10;;
62584;SDS011;48643;51.670;5.808;2022-11-20T06:33:29;6.00;;;4.10;;
62584;SDS011;48643;51.670;5.808;2022-11-20T06:35:56;5.78;;;4.00;;
62584;SDS011;48643;51.670;5.808;2022-11-20T06:38:28;5.20;;;4.07;;
62584;SDS011;48643;51.670;5.808;2022-11-20T06:40:55;4.78;;;3.83;;
62584;SDS011;48643;51.670;5.808;2022-11-20T06:43:22;5.53;;;4.10;;
62584;SDS011;48643;51.670;5.808;2022-11-20T06:45:53;5.35;;;4.15;;
62584;SDS011;48643;51.670;5.808;2022-11-20T06:48:25;5.32;;;4.28;;
62584;SDS011;48643;51.670;5.808;2022-11-20T06:50:53;6.00;;;4.28;;
62584;SDS011;48643;51.670;5.808;2022-11-20T06:53:21;5.55;;;4.15;;
62584;SDS011;48643;51.670;5.808;2022-11-20T06:55:48;5.68;;;4.20;;
62584;SDS011;48643;51.670;5.808;2022-11-20T06:58:16;5.88;;;4.22;;
62584;SDS011;48643;51.670;5.808;2022-11-20T07:00:43;7.25;;;4.25;;
62584;SDS011;48643;51.670;5.808;2022-11-20T07:03:11;5.22;;;4.18;;
62584;SDS011;48643;51.670;5.808;2022-11-20T07:05:38;5.75;;;4.32;;
62584;SDS011;48643;51.670;5.808;2022-11-20T07:08:06;5.72;;;4.40;;
62584;SDS011;48643;51.670;5.808;2022-11-20T07:10:33;5.80;;;4.25;;
62584;SDS011;48643;51.670;5.808;2022-11-20T07:13:00;6.47;;;4.18;;
62584;SDS011;48643;51.670;5.808;2022-11-20T07:15:27;6.40;;;4.60;;
62584;SDS011;48643;51.670;5.808;2022-11-20T07:17:53;6.07;;;4.43;;
62584;SDS011;48643;51.670;5.808;2022-11-20T07:20:20;5.50;;;4.05;;
62584;SDS011;48643;51.670;5.808;2022-11-20T07:22:52;5.50;;;4.20;;
62584;SDS011;48643;51.670;5.808;2022-11-20T07:25:20;6.30;;;4.20;;
62584;SDS011;48643;51.670;5.808;2022-11-20T07:27:48;5.82;;;4.30;;
62584;SDS011;48643;51.670;5.808;2022-11-20T07:30:15;5.80;;;4.45;;
62584;SDS011;48643;51.670;5.808;2022-11-20T07:32:45;5.80;;;4.20;;
62584;SDS011;48643;51.670;5.808;2022-11-20T07:35:13;6.07;;;4.57;;
62584;SDS011;48643;51.670;5.808;2022-11-20T07:37:40;5.70;;;4.22;;
62584;SDS011;48643;51.670;5.808;2022-11-20T07:40:07;10.88;;;5.10;;
62584;SDS011;48643;51.670;5.808;2022-11-20T07:42:34;9.23;;;5.00;;
62584;SDS011;48643;51.670;5.808;2022-11-20T07:45:01;7.70;;;5.38;;
62584;SDS011;48643;51.670;5.808;2022-11-20T07:47:28;7.38;;;5.18;;
62584;SDS011;48643;51.670;5.808;2022-11-20T07:49:55;6.93;;;5.30;;
62584;SDS011;48643;51.670;5.808;2022-11-20T07:52:22;6.20;;;4.72;;
62584;SDS011;48643;51.670;5.808;2022-11-20T07:54:49;7.25;;;4.70;;
62584;SDS011;48643;51.670;5.808;2022-11-20T07:57:15;8.43;;;5.00;;
62584;SDS011;48643;51.670;5.808;2022-11-20T07:59:42;8.73;;;4.95;;
62584;SDS011;48643;51.670;5.808;2022-11-20T08:02:10;6.65;;;4.72;;
62584;SDS011;48643;51.670;5.808;2022-11-20T08:04:37;7.63;;;4.80;;
62584;SDS011;48643;51.670;5.808;2022-11-20T08:07:04;10.95;;;4.90;;
62584;SDS011;48643;51.670;5.808;2022-11-20T08:09:31;6.65;;;4.72;;
62584;SDS011;48643;51.670;5.808;2022-11-20T08:11:58;6.50;;;4.40;;
62584;SDS011;48643;51.670;5.808;2022-11-20T08:14:44;7.07;;;4.55;;
62584;SDS011;48643;51.670;5.808;2022-11-20T08:17:10;6.80;;;4.47;;
62584;SDS011;48643;51.670;5.808;2022-11-20T08:19:38;6.38;;;4.55;;
62584;SDS011;48643;51.670;5.808;2022-11-20T08:22:05;5.88;;;4.30;;
62584;SDS011;48643;51.670;5.808;2022-11-20T08:24:32;6.53;;;4.45;;
62584;SDS011;48643;51.670;5.808;2022-11-20T08:26:59;5.88;;;4.18;;
62584;SDS011;48643;51.670;5.808;2022-11-20T08:29:26;6.95;;;4.57;;
62584;SDS011;48643;51.670;5.808;2022-11-20T08:31:53;6.30;;;4.47;;
62584;SDS011;48643;51.670;5.808;2022-11-20T08:34:20;8.35;;;4.30;;
62584;SDS011;48643;51.670;5.808;2022-11-20T08:36:47;5.88;;;3.92;;
62584;SDS011;48643;51.670;5.808;2022-11-20T08:39:14;5.28;;;3.92;;
62584;SDS011;48643;51.670;5.808;2022-11-20T08:41:41;6.07;;;4.30;;
62584;SDS011;48643;51.670;5.808;2022-11-20T08:44:08;6.82;;;4.38;;
62584;SDS011;48643;51.670;5.808;2022-11-20T08:46:36;4.85;;;4.05;;
62584;SDS011;48643;51.670;5.808;2022-11-20T08:49:05;5.72;;;4.10;;
62584;SDS011;48643;51.670;5.808;2022-11-20T08:51:33;6.10;;;4.22;;
62584;SDS011;48643;51.670;5.808;2022-11-20T08:54:00;6.03;;;4.00;;
62584;SDS011;48643;51.670;5.808;2022-11-20T08:56:27;5.65;;;4.20;;
62584;SDS011;48643;51.670;5.808;2022-11-20T08:58:54;6.90;;;4.18;;
62584;SDS011;48643;51.670;5.808;2022-11-20T09:01:40;5.93;;;4.07;;
62584;SDS011;48643;51.670;5.808;2022-11-20T09:04:07;5.97;;;4.00;;
62584;SDS011;48643;51.670;5.808;2022-11-20T09:06:34;5.18;;;3.97;;
62584;SDS011;48643;51.670;5.808;2022-11-20T09:09:01;5.82;;;4.00;;
62584;SDS011;48643;51.670;5.808;2022-11-20T09:11:32;5.28;;;3.97;;
62584;SDS011;48643;51.670;5.808;2022-11-20T09:14:00;5.00;;;3.95;;
62584;SDS011;48643;51.670;5.808;2022-11-20T09:16:29;5.03;;;3.70;;
62584;SDS011;48643;51.670;5.808;2022-11-20T09:18:56;5.55;;;4.03;;
62584;SDS011;48643;51.670;5.808;2022-11-20T09:21:42;7.28;;;4.15;;
62584;SDS011;48643;51.670;5.808;2022-11-20T09:24:09;5.57;;;4.10;;
62584;SDS011;48643;51.670;5.808;2022-11-20T09:26:36;5.18;;;4.10;;
62584;SDS011;48643;51.670;5.808;2022-11-20T09:29:03;5.38;;;4.00;;
62584;SDS011;48643;51.670;5.808;2022-11-20T09:31:30;5.57;;;4.00;;
62584;SDS011;48643;51.670;5.808;2022-11-20T09:33:57;7.70;;;3.80;;
62584;SDS011;48643;51.670;5.808;2022-11-20T09:36:24;5.57;;;3.95;;
62584;SDS011;48643;51.670;5.808;2022-11-20T09:38:51;6.95;;;4.18;;
62584;SDS011;48643;51.670;5.808;2022-11-20T09:41:42;8.48;;;4.00;;
62584;SDS011;48643;51.670;5.808;2022-11-20T09:47:20;5.60;;;4.20;;
62584;SDS011;48643;51.670;5.808;2022-11-20T09:55:42;5.32;;;4.00;;
62584;SDS011;48643;51.670;5.808;2022-11-20T09:58:15;5.75;;;4.10;;
62584;SDS011;48643;51.670;5.808;2022-11-20T10:00:47;7.25;;;4.53;;
62584;SDS011;48643;51.670;5.808;2022-11-20T10:03:20;7.13;;;4.90;;
62584;SDS011;48643;51.670;5.808;2022-11-20T10:06:02;7.72;;;4.63;;
62584;SDS011;48643;51.670;5.808;2022-11-20T10:08:40;5.60;;;4.55;;
62584;SDS011;48643;51.670;5.808;2022-11-20T10:11:14;10.35;;;4.88;;
62584;SDS011;48643;51.670;5.808;2022-11-20T10:13:53;6.95;;;4.95;;
62584;SDS011;48643;51.670;5.808;2022-11-20T10:22:37;7.68;;;4.90;;
62584;SDS011;48643;51.670;5.808;2022-11-20T10:30:18;8.95;;;5.10;;
62584;SDS011;48643;51.670;5.808;2022-11-20T10:33:34;7.63;;;4.90;;
62584;SDS011;48643;51.670;5.808;2022-11-20T10:36:19;8.32;;;4.70;;
62584;SDS011;48643;51.670;5.808;2022-11-20T10:38:51;6.60;;;4.97;;
62584;SDS011;48643;51.670;5.808;2022-11-20T10:41:24;6.72;;;4.80;;
62584;SDS011;48643;51.670;5.808;2022-11-20T10:44:09;10.93;;;5.03;;
62584;SDS011;48643;51.670;5.808;2022-11-20T10:46:40;6.22;;;4.50;;
62584;SDS011;48643;51.670;5.808;2022-11-20T10:49:14;8.23;;;4.80;;
62584;SDS011;48643;51.670;5.808;2022-11-20T11:00:30;9.05;;;4.22;;
62584;SDS011;48643;51.670;5.808;2022-11-20T11:02:57;7.55;;;4.57;;
62584;SDS011;48643;51.670;5.808;2022-11-20T11:05:48;11.07;;;4.40;;
62584;SDS011;48643;51.670;5.808;2022-11-20T11:08:18;6.72;;;4.55;;
62584;SDS011;48643;51.670;5.808;2022-11-20T11:10:53;7.45;;;4.85;;
62584;SDS011;48643;51.670;5.808;2022-11-20T11:13:22;7.43;;;4.45;;
62584;SDS011;48643;51.670;5.808;2022-11-20T11:15:51;7.18;;;4.53;;
62584;SDS011;48643;51.670;5.808;2022-11-20T11:20:51;7.90;;;4.32;;
62584;SDS011;48643;51.670;5.808;2022-11-20T11:25:56;6.45;;;4.70;;
62584;SDS011;48643;51.670;5.808;2022-11-20T11:28:25;6.03;;;4.38;;
62584;SDS011;48643;51.670;5.808;2022-11-20T11:30:54;9.88;;;4.57;;
62584;SDS011;48643;51.670;5.808;2022-11-20T11:36:00;6.75;;;4.50;;
62584;SDS011;48643;51.670;5.808;2022-11-20T11:41:00;5.47;;;4.20;;
62584;SDS011;48643;51.670;5.808;2022-11-20T11:43:32;7.30;;;4.50;;
62584;SDS011;48643;51.670;5.808;2022-11-20T11:49:00;9.77;;;4.80;;
62584;SDS011;48643;51.670;5.808;2022-11-20T11:51:38;6.65;;;4.30;;
62584;SDS011;48643;51.670;5.808;2022-11-20T11:54:16;7.75;;;4.88;;
62584;SDS011;48643;51.670;5.808;2022-11-20T11:56:46;7.00;;;4.70;;
62584;SDS011;48643;51.670;5.808;2022-11-20T11:59:16;6.43;;;4.53;;
62584;SDS011;48643;51.670;5.808;2022-11-20T12:01:58;7.47;;;4.57;;
62584;SDS011;48643;51.670;5.808;2022-11-20T12:10:14;6.50;;;4.65;;
62584;SDS011;48643;51.670;5.808;2022-11-20T12:12:51;6.13;;;4.72;;
62584;SDS011;48643;51.670;5.808;2022-11-20T12:15:31;8.73;;;5.30;;
62584;SDS011;48643;51.670;5.808;2022-11-20T12:17:59;7.85;;;4.97;;
62584;SDS011;48643;51.670;5.808;2022-11-20T12:20:29;6.82;;;4.65;;
62584;SDS011;48643;51.670;5.808;2022-11-20T12:23:06;8.93;;;4.97;;
62584;SDS011;48643;51.670;5.808;2022-11-20T12:25:35;9.63;;;4.65;;
62584;SDS011;48643;51.670;5.808;2022-11-20T12:34:02;6.57;;;4.68;;
62584;SDS011;48643;51.670;5.808;2022-11-20T12:36:50;8.55;;;5.10;;
62584;SDS011;48643;51.670;5.808;2022-11-20T12:39:34;23.25;;;5.90;;
62584;SDS011;48643;51.670;5.808;2022-11-20T12:42:05;9.38;;;5.78;;
62584;SDS011;48643;51.670;5.808;2022-11-20T13:06:36;7.80;;;4.90;;
62584;SDS011;48643;51.670;5.808;2022-11-20T13:08:39;11.13;;;4.90;;
62584;SDS011;48643;51.670;5.808;2022-11-20T13:11:15;9.18;;;5.28;;
62584;SDS011;48643;51.670;5.808;2022-11-20T13:17:10;7.95;;;4.97;;
62584;SDS011;48643;51.670;5.808;2022-11-20T13:19:41;6.53;;;4.60;;
62584;SDS011;48643;51.670;5.808;2022-11-20T13:22:08;7.93;;;5.07;;
62584;SDS011;48643;51.670;5.808;2022-11-20T13:24:35;9.13;;;5.25;;
62584;SDS011;48643;51.670;5.808;2022-11-20T13:27:04;9.95;;;5.72;;
62584;SDS011;48643;51.670;5.808;2022-11-20T13:29:34;8.63;;;5.10;;
62584;SDS011;48643;51.670;5.808;2022-11-20T13:32:18;8.20;;;5.30;;
62584;SDS011;48643;51.670;5.808;2022-11-20T13:34:59;10.35;;;5.38;;
62584;SDS011;48643;51.670;5.808;2022-11-20T13:37:30;7.00;;;4.80;;
62584;SDS011;48643;51.670;5.808;2022-11-20T13:40:32;7.53;;;5.40;;
62584;SDS011;48643;51.670;5.808;2022-11-20T13:43:08;9.52;;;5.55;;
62584;SDS011;48643;51.670;5.808;2022-11-20T13:45:57;7.88;;;5.22;;
62584;SDS011;48643;51.670;5.808;2022-11-20T13:48:38;7.85;;;5.40;;
62584;SDS011;48643;51.670;5.808;2022-11-20T13:56:28;8.70;;;5.70;;
62584;SDS011;48643;51.670;5.808;2022-11-20T14:01:58;8.05;;;5.60;;
62584;SDS011;48643;51.670;5.808;2022-11-20T14:04:27;8.98;;;5.60;;
62584;SDS011;48643;51.670;5.808;2022-11-20T14:06:56;9.57;;;5.57;;
62584;SDS011;48643;51.670;5.808;2022-11-20T14:09:27;9.52;;;5.45;;
62584;SDS011;48643;51.670;5.808;2022-11-20T14:11:56;9.23;;;5.63;;
62584;SDS011;48643;51.670;5.808;2022-11-20T14:14:24;9.50;;;5.60;;
62584;SDS011;48643;51.670;5.808;2022-11-20T14:16:52;8.98;;;5.70;;
62584;SDS011;48643;51.670;5.808;2022-11-20T14:19:33;8.93;;;5.25;;
62584;SDS011;48643;51.670;5.808;2022-11-20T14:24:40;8.63;;;5.70;;
62584;SDS011;48643;51.670;5.808;2022-11-20T14:27:14;9.15;;;5.80;;
62584;SDS011;48643;51.670;5.808;2022-11-20T14:29:43;10.10;;;5.88;;
62584;SDS011;48643;51.670;5.808;2022-11-20T14:32:14;8.13;;;5.68;;
62584;SDS011;48643;51.670;5.808;2022-11-20T14:34:43;9.00;;;5.82;;
62584;SDS011;48643;51.670;5.808;2022-11-20T14:37:12;10.50;;;5.75;;
62584;SDS011;48643;51.670;5.808;2022-11-20T14:39:51;9.70;;;5.80;;
62584;SDS011;48643;51.670;5.808;2022-11-20T14:42:20;10.35;;;5.97;;
62584;SDS011;48643;51.670;5.808;2022-11-20T14:44:49;8.63;;;5.75;;
62584;SDS011;48643;51.670;5.808;2022-11-20T14:47:20;9.88;;;6.30;;
62584;SDS011;48643;51.670;5.808;2022-11-20T14:49:49;9.18;;;5.78;;
62584;SDS011;48643;51.670;5.808;2022-11-20T14:52:18;9.87;;;6.30;;
62584;SDS011;48643;51.670;5.808;2022-11-20T14:54:47;9.82;;;6.00;;
62584;SDS011;48643;51.670;5.808;2022-11-20T14:59:50;8.88;;;5.80;;
62584;SDS011;48643;51.670;5.808;2022-11-20T15:02:17;8.63;;;6.03;;
62584;SDS011;48643;51.670;5.808;2022-11-20T15:04:48;9.68;;;6.13;;
62584;SDS011;48643;51.670;5.808;2022-11-20T15:07:23;8.50;;;5.60;;
62584;SDS011;48643;51.670;5.808;2022-11-20T15:10:01;8.45;;;5.95;;
62584;SDS011;48643;51.670;5.808;2022-11-20T15:12:30;8.68;;;5.78;;
62584;SDS011;48643;51.670;5.808;2022-11-20T15:14:58;8.00;;;5.78;;
62584;SDS011;48643;51.670;5.808;2022-11-20T15:17:25;9.35;;;6.00;;
62584;SDS011;48643;51.670;5.808;2022-11-20T15:19:52;8.98;;;5.63;;
62584;SDS011;48643;51.670;5.808;2022-11-20T15:22:19;7.93;;;5.40;;
62584;SDS011;48643;51.670;5.808;2022-11-20T15:24:46;9.18;;;5.97;;
62584;SDS011;48643;51.670;5.808;2022-11-20T15:27:13;10.98;;;5.90;;
62584;SDS011;48643;51.670;5.808;2022-11-20T15:29:40;9.35;;;5.93;;
62584;SDS011;48643;51.670;5.808;2022-11-20T15:32:08;8.18;;;5.63;;
62584;SDS011;48643;51.670;5.808;2022-11-20T15:34:39;9.35;;;5.95;;
62584;SDS011;48643;51.670;5.808;2022-11-20T15:37:06;10.52;;;6.05;;
62584;SDS011;48643;51.670;5.808;2022-11-20T15:39:32;9.73;;;5.90;;
62584;SDS011;48643;51.670;5.808;2022-11-20T15:41:59;8.63;;;5.75;;
62584;SDS011;48643;51.670;5.808;2022-11-20T15:44:27;8.88;;;6.18;;
62584;SDS011;48643;51.670;5.808;2022-11-20T15:46:54;9.85;;;6.05;;
62584;SDS011;48643;51.670;5.808;2022-11-20T15:49:21;10.45;;;6.35;;
62584;SDS011;48643;51.670;5.808;2022-11-20T15:51:49;8.37;;;5.70;;
62584;SDS011;48643;51.670;5.808;2022-11-20T15:54:18;9.40;;;5.88;;
62584;SDS011;48643;51.670;5.808;2022-11-20T15:56:48;9.23;;;5.80;;
62584;SDS011;48643;51.670;5.808;2022-11-20T15:59:15;9.27;;;5.95;;
62584;SDS011;48643;51.670;5.808;2022-11-20T16:01:42;8.88;;;5.63;;
62584;SDS011;48643;51.670;5.808;2022-11-20T16:04:10;10.45;;;6.15;;
62584;SDS011;48643;51.670;5.808;2022-11-20T16:06:38;9.82;;;6.00;;
62584;SDS011;48643;51.670;5.808;2022-11-20T16:09:05;8.30;;;5.80;;
62584;SDS011;48643;51.670;5.808;2022-11-20T16:11:32;9.10;;;6.00;;
62584;SDS011;48643;51.670;5.808;2022-11-20T16:13:59;10.05;;;6.10;;
62584;SDS011;48643;51.670;5.808;2022-11-20T16:16:45;9.15;;;6.07;;
62584;SDS011;48643;51.670;5.808;2022-11-20T16:19:12;9.75;;;5.93;;
62584;SDS011;48643;51.670;5.808;2022-11-20T16:21:40;9.10;;;6.30;;
62584;SDS011;48643;51.670;5.808;2022-11-20T16:24:09;8.73;;;6.03;;
62584;SDS011;48643;51.670;5.808;2022-11-20T16:26:37;9.85;;;5.78;;
62584;SDS011;48643;51.670;5.808;2022-11-20T16:29:05;8.32;;;5.53;;
62584;SDS011;48643;51.670;5.808;2022-11-20T16:31:32;8.95;;;5.97;;
62584;SDS011;48643;51.670;5.808;2022-11-20T16:34:00;8.63;;;5.65;;
62584;SDS011;48643;51.670;5.808;2022-11-20T16:36:38;10.07;;;5.85;;
62584;SDS011;48643;51.670;5.808;2022-11-20T16:39:06;7.90;;;5.90;;
62584;SDS011;48643;51.670;5.808;2022-11-20T16:41:33;8.68;;;6.00;;
62584;SDS011;48643;51.670;5.808;2022-11-20T16:44:01;8.73;;;6.07;;